createdAt,value
2016-06-09T00:00:17.720Z,0
2016-06-09T00:01:17.724Z,0
2016-06-09T00:02:17.742Z,0
2016-06-09T00:03:18.542Z,0
2016-06-09T00:04:17.842Z,0
2016-06-09T00:05:17.720Z,0
2016-06-09T00:06:17.754Z,0
2016-06-09T00:07:17.742Z,0
2016-06-09T00:08:17.761Z,0
2016-06-09T00:09:17.748Z,0
2016-06-09T00:10:17.752Z,0
2016-06-09T00:11:17.738Z,0
2016-06-09T00:12:17.741Z,0
2016-06-09T00:13:17.744Z,0
2016-06-09T00:14:17.747Z,0
2016-06-09T00:15:17.594Z,0
2016-06-09T00:16:17.753Z,0
2016-06-09T00:17:17.741Z,0
2016-06-09T00:18:17.837Z,0
2016-06-09T00:19:17.622Z,0
2016-06-09T00:20:17.750Z,0
2016-06-09T00:21:17.753Z,0
2016-06-09T00:22:17.788Z,0
2016-06-09T00:23:17.760Z,0
2016-06-09T00:24:17.778Z,0
2016-06-09T00:25:17.765Z,0
2016-06-09T00:26:17.769Z,0
2016-06-09T00:27:17.772Z,0
2016-06-09T00:28:17.775Z,0
2016-06-09T00:29:17.762Z,0
2016-06-09T00:30:17.781Z,0
2016-06-09T00:31:17.784Z,0
2016-06-09T00:32:17.616Z,0
2016-06-09T00:33:17.790Z,0
2016-06-09T00:34:17.778Z,0
2016-06-09T00:35:17.782Z,0
2016-06-09T00:36:17.784Z,0
2016-06-09T00:37:17.787Z,0
2016-06-09T00:38:17.775Z,0
2016-06-09T00:39:17.793Z,0
2016-06-09T00:40:17.780Z,0
2016-06-09T00:41:17.784Z,0
2016-06-09T00:42:17.803Z,0
2016-06-09T00:43:17.805Z,0
2016-06-09T00:44:17.809Z,0
2016-06-09T00:45:17.795Z,0
2016-06-09T00:46:17.799Z,0
2016-06-09T00:47:17.818Z,0
2016-06-09T00:48:17.805Z,0
2016-06-09T00:49:18.511Z,0
2016-06-09T00:50:17.796Z,0
2016-06-09T00:51:17.800Z,0
2016-06-09T00:52:17.643Z,0
2016-06-09T00:53:17.802Z,0
2016-06-09T00:54:17.806Z,0
2016-06-09T00:55:17.809Z,0
2016-06-09T00:56:17.811Z,0
2016-06-09T00:57:17.829Z,0
2016-06-09T00:58:17.818Z,0
2016-06-09T00:59:17.649Z,0
2016-06-09T01:00:17.808Z,0
2016-06-09T01:01:17.827Z,0
2016-06-09T01:02:17.814Z,0
2016-06-09T01:03:17.692Z,0
2016-06-09T01:04:17.851Z,0
2016-06-09T01:05:17.823Z,0
2016-06-09T01:06:17.671Z,0
2016-06-09T01:07:17.829Z,0
2016-06-09T01:08:17.848Z,0
2016-06-09T01:09:17.835Z,0
2016-06-09T01:10:17.823Z,0
2016-06-09T01:11:17.826Z,0
2016-06-09T01:12:17.845Z,0
2016-06-09T01:13:17.973Z,0
2016-06-09T01:14:17.835Z,0
2016-06-09T01:15:17.838Z,0
2016-06-09T01:16:17.841Z,0
2016-06-09T01:17:17.844Z,0
2016-06-09T01:18:17.894Z,0
2016-06-09T01:19:17.539Z,0
2016-06-09T01:20:17.697Z,0
2016-06-09T01:21:17.841Z,0
2016-06-09T01:22:17.845Z,0
2016-06-09T01:23:17.848Z,0
2016-06-09T01:24:17.850Z,0
2016-06-09T01:25:17.854Z,0
2016-06-09T01:26:17.857Z,0
2016-06-09T01:27:17.703Z,0
2016-06-09T01:28:17.862Z,0
2016-06-09T01:29:17.866Z,0
2016-06-09T01:30:17.854Z,0
2016-06-09T01:31:17.872Z,0
2016-06-09T01:32:17.859Z,0
2016-06-09T01:33:17.706Z,0
2016-06-09T01:34:18.069Z,0
2016-06-09T01:35:17.868Z,0
2016-06-09T01:36:17.871Z,0
2016-06-09T01:37:17.922Z,0
2016-06-09T01:38:17.705Z,0
2016-06-09T01:39:17.881Z,0
2016-06-09T01:40:17.884Z,0
2016-06-09T01:41:17.871Z,0
2016-06-09T01:42:17.874Z,0
2016-06-09T01:43:17.877Z,0
2016-06-09T01:44:17.880Z,0
2016-06-09T01:45:17.883Z,0
2016-06-09T01:46:17.887Z,0
2016-06-09T01:47:17.749Z,0
2016-06-09T01:48:18.409Z,0
2016-06-09T01:49:18.084Z,0
2016-06-09T01:50:17.884Z,0
2016-06-09T01:51:17.902Z,0
2016-06-09T01:52:17.890Z,0
2016-06-09T01:53:17.908Z,0
2016-06-09T01:54:17.911Z,0
2016-06-09T01:55:17.913Z,0
2016-06-09T01:56:17.902Z,0
2016-06-09T01:57:17.889Z,0
2016-06-09T01:58:17.923Z,0
2016-06-09T01:59:17.911Z,0
2016-06-09T02:00:17.899Z,0
2016-06-09T02:01:17.901Z,0
2016-06-09T02:02:17.904Z,0
2016-06-09T02:03:17.924Z,0
2016-06-09T02:04:18.005Z,0
2016-06-09T02:05:17.914Z,0
2016-06-09T02:06:17.902Z,0
2016-06-09T02:07:17.920Z,0
2016-06-09T02:08:17.923Z,0
2016-06-09T02:09:17.942Z,0
2016-06-09T02:10:17.914Z,0
2016-06-09T02:11:17.932Z,0
2016-06-09T02:12:17.935Z,0
2016-06-09T02:13:17.923Z,0
2016-06-09T02:14:17.614Z,0
2016-06-09T02:15:17.929Z,0
2016-06-09T02:16:17.948Z,0
2016-06-09T02:17:17.936Z,0
2016-06-09T02:18:17.923Z,0
2016-06-09T02:19:19.284Z,0
2016-06-09T02:20:17.929Z,0
2016-06-09T02:21:17.948Z,0
2016-06-09T02:22:17.934Z,0
2016-06-09T02:23:17.782Z,0
2016-06-09T02:24:17.941Z,0
2016-06-09T02:25:17.928Z,0
2016-06-09T02:26:17.931Z,0
2016-06-09T02:27:17.950Z,0
2016-06-09T02:28:17.937Z,0
2016-06-09T02:29:17.785Z,0
2016-06-09T02:30:17.788Z,0
2016-06-09T02:31:17.947Z,0
2016-06-09T02:32:17.935Z,0
2016-06-09T02:33:17.953Z,0
2016-06-09T02:34:17.956Z,0
2016-06-09T02:35:17.959Z,0
2016-06-09T02:36:17.962Z,0
2016-06-09T02:37:17.965Z,0
2016-06-09T02:38:17.812Z,0
2016-06-09T02:39:17.957Z,0
2016-06-09T02:40:17.959Z,0
2016-06-09T02:41:17.962Z,0
2016-06-09T02:42:17.966Z,0
2016-06-09T02:43:17.984Z,0
2016-06-09T02:44:17.971Z,0
2016-06-09T02:45:17.975Z,0
2016-06-09T02:46:17.961Z,0
2016-06-09T02:47:17.981Z,0
2016-06-09T02:48:17.984Z,0
2016-06-09T02:49:18.689Z,0
2016-06-09T02:50:17.974Z,0
2016-06-09T02:51:17.977Z,0
2016-06-09T02:52:17.980Z,0
2016-06-09T02:53:17.983Z,0
2016-06-09T02:54:17.986Z,0
2016-06-09T02:55:17.833Z,0
2016-06-09T02:56:17.977Z,0
2016-06-09T02:57:17.995Z,0
2016-06-09T02:58:17.982Z,0
2016-06-09T02:59:17.986Z,0
2016-06-09T03:00:17.989Z,0
2016-06-09T03:01:17.991Z,0
2016-06-09T03:02:17.980Z,0
2016-06-09T03:03:17.983Z,0
2016-06-09T03:04:18.017Z,0
2016-06-09T03:05:18.004Z,0
2016-06-09T03:06:18.008Z,0
2016-06-09T03:07:17.995Z,0
2016-06-09T03:08:18.029Z,0
2016-06-09T03:09:18.017Z,0
2016-06-09T03:10:18.020Z,4
2016-06-09T03:11:18.007Z,4
2016-06-09T03:12:17.995Z,4
2016-06-09T03:13:18.108Z,4
2016-06-09T03:14:18.017Z,4
2016-06-09T03:15:18.003Z,4
2016-06-09T03:16:18.023Z,8
2016-06-09T03:17:18.010Z,4
2016-06-09T03:18:18.013Z,8
2016-06-09T03:19:18.438Z,8
2016-06-09T03:20:18.019Z,12
2016-06-09T03:21:18.038Z,16
2016-06-09T03:22:18.025Z,16
2016-06-09T03:23:18.044Z,20
2016-06-09T03:24:18.031Z,24
2016-06-09T03:25:18.034Z,28
2016-06-09T03:26:18.038Z,32
2016-06-09T03:27:18.026Z,36
2016-06-09T03:28:18.028Z,36
2016-06-09T03:29:18.032Z,40
2016-06-09T03:30:18.035Z,44
2016-06-09T03:31:18.038Z,44
2016-06-09T03:32:18.025Z,44
2016-06-09T03:33:18.029Z,52
2016-06-09T03:34:18.187Z,52
2016-06-09T03:35:18.050Z,56
2016-06-09T03:36:18.038Z,56
2016-06-09T03:37:18.041Z,56
2016-06-09T03:38:18.043Z,60
2016-06-09T03:39:18.047Z,64
2016-06-09T03:40:18.050Z,68
2016-06-09T03:41:18.037Z,76
2016-06-09T03:42:18.071Z,76
2016-06-09T03:43:17.903Z,84
2016-06-09T03:44:18.046Z,88
2016-06-09T03:45:18.065Z,88
2016-06-09T03:46:18.052Z,96
2016-06-09T03:47:18.055Z,100
2016-06-09T03:48:18.043Z,104
2016-06-09T03:49:18.577Z,96
2016-06-09T03:50:18.081Z,96
2016-06-09T03:51:18.052Z,100
2016-06-09T03:52:18.070Z,96
2016-06-09T03:53:18.059Z,96
2016-06-09T03:54:18.062Z,92
2016-06-09T03:55:18.064Z,96
2016-06-09T03:56:18.068Z,96
2016-06-09T03:57:18.071Z,96
2016-06-09T03:58:18.074Z,96
2016-06-09T03:59:18.061Z,100
2016-06-09T04:00:18.064Z,104
2016-06-09T04:01:18.098Z,112
2016-06-09T04:02:18.101Z,116
2016-06-09T04:03:17.918Z,124
2016-06-09T04:04:18.077Z,132
2016-06-09T04:05:18.235Z,148
2016-06-09T04:06:18.067Z,160
2016-06-09T04:07:18.086Z,172
2016-06-09T04:08:17.964Z,180
2016-06-09T04:09:18.091Z,184
2016-06-09T04:10:18.095Z,188
2016-06-09T04:11:17.926Z,188
2016-06-09T04:12:18.085Z,188
2016-06-09T04:13:18.088Z,184
2016-06-09T04:14:18.091Z,180
2016-06-09T04:15:18.110Z,172
2016-06-09T04:16:18.098Z,164
2016-06-09T04:17:18.101Z,160
2016-06-09T04:18:18.088Z,156
2016-06-09T04:19:18.200Z,148
2016-06-09T04:20:18.126Z,136
2016-06-09T04:21:18.113Z,128
2016-06-09T04:22:17.944Z,120
2016-06-09T04:23:18.119Z,112
2016-06-09T04:24:18.107Z,100
2016-06-09T04:25:18.094Z,96
2016-06-09T04:26:18.113Z,88
2016-06-09T04:27:18.116Z,88
2016-06-09T04:28:18.103Z,88
2016-06-09T04:29:18.106Z,92
2016-06-09T04:30:18.110Z,92
2016-06-09T04:31:18.129Z,100
2016-06-09T04:32:17.960Z,100
2016-06-09T04:33:18.134Z,100
2016-06-09T04:34:18.122Z,100
2016-06-09T04:35:17.828Z,100
2016-06-09T04:36:18.127Z,100
2016-06-09T04:37:17.959Z,104
2016-06-09T04:38:18.134Z,100
2016-06-09T04:39:18.122Z,100
2016-06-09T04:40:18.125Z,96
2016-06-09T04:41:18.128Z,100
2016-06-09T04:42:18.146Z,104
2016-06-09T04:43:18.134Z,116
2016-06-09T04:44:18.138Z,128
2016-06-09T04:45:18.140Z,144
2016-06-09T04:46:18.143Z,152
2016-06-09T04:47:18.147Z,164
2016-06-09T04:48:18.134Z,172
2016-06-09T04:49:18.198Z,180
2016-06-09T04:50:18.609Z,188
2016-06-09T04:51:18.143Z,196
2016-06-09T04:52:18.146Z,204
2016-06-09T04:53:18.149Z,216
2016-06-09T04:54:18.152Z,228
2016-06-09T04:55:18.139Z,236
2016-06-09T04:56:18.142Z,244
2016-06-09T04:57:18.145Z,248
2016-06-09T04:58:18.165Z,256
2016-06-09T04:59:18.168Z,268
2016-06-09T05:00:18.139Z,284
2016-06-09T05:01:18.174Z,308
2016-06-09T05:02:18.161Z,332
2016-06-09T05:03:18.164Z,364
2016-06-09T05:04:18.636Z,396
2016-06-09T05:05:18.013Z,440
2016-06-09T05:06:18.173Z,484
2016-06-09T05:07:18.161Z,536
2016-06-09T05:08:18.164Z,592
2016-06-09T05:09:18.168Z,632
2016-06-09T05:10:18.170Z,660
2016-06-09T05:11:18.173Z,660
2016-06-09T05:12:18.177Z,652
2016-06-09T05:13:18.023Z,632
2016-06-09T05:14:18.182Z,628
2016-06-09T05:15:18.014Z,648
2016-06-09T05:16:18.189Z,672
2016-06-09T05:17:18.192Z,696
2016-06-09T05:18:18.179Z,724
2016-06-09T05:19:18.854Z,768
2016-06-09T05:20:18.185Z,832
2016-06-09T05:21:18.188Z,880
2016-06-09T05:22:18.191Z,920
2016-06-09T05:23:18.194Z,968
2016-06-09T05:24:18.197Z,1020
2016-06-09T05:25:18.200Z,1032
2016-06-09T05:26:18.188Z,1012
2016-06-09T05:27:18.191Z,980
2016-06-09T05:28:18.038Z,964
2016-06-09T05:29:18.212Z,992
2016-06-09T05:30:18.185Z,1052
2016-06-09T05:31:18.203Z,1060
2016-06-09T05:32:18.206Z,1064
2016-06-09T05:33:18.209Z,1076
2016-06-09T05:34:18.619Z,1088
2016-06-09T05:35:18.778Z,1084
2016-06-09T05:36:18.048Z,1064
2016-06-09T05:37:18.206Z,1040
2016-06-09T05:38:18.209Z,1016
2016-06-09T05:39:18.212Z,996
2016-06-09T05:40:18.216Z,972
2016-06-09T05:41:18.203Z,936
2016-06-09T05:42:18.206Z,888
2016-06-09T05:43:18.209Z,840
2016-06-09T05:44:18.211Z,812
2016-06-09T05:45:18.215Z,788
2016-06-09T05:46:18.202Z,780
2016-06-09T05:47:18.221Z,772
2016-06-09T05:48:18.224Z,780
2016-06-09T05:49:18.227Z,808
2016-06-09T05:50:18.277Z,832
2016-06-09T05:51:18.218Z,844
2016-06-09T05:52:18.221Z,864
2016-06-09T05:53:18.224Z,860
2016-06-09T05:54:18.258Z,868
2016-06-09T05:55:18.246Z,872
2016-06-09T05:56:18.234Z,888
2016-06-09T05:57:18.236Z,884
2016-06-09T05:58:18.240Z,880
2016-06-09T05:59:18.243Z,892
2016-06-09T06:00:18.246Z,924
2016-06-09T06:01:18.233Z,972
2016-06-09T06:02:18.081Z,1020
2016-06-09T06:03:18.239Z,1072
2016-06-09T06:04:18.243Z,1116
2016-06-09T06:05:18.104Z,1156
2016-06-09T06:06:18.248Z,1188
2016-06-09T06:07:18.251Z,1220
2016-06-09T06:08:18.254Z,1236
2016-06-09T06:09:18.257Z,1224
2016-06-09T06:10:18.261Z,1208
2016-06-09T06:11:18.264Z,1184
2016-06-09T06:12:18.251Z,1164
2016-06-09T06:13:18.411Z,1136
2016-06-09T06:14:18.257Z,1104
2016-06-09T06:15:18.104Z,1064
2016-06-09T06:16:18.263Z,996
2016-06-09T06:17:18.266Z,944
2016-06-09T06:18:18.269Z,928
2016-06-09T06:19:18.133Z,948
2016-06-09T06:20:18.292Z,988
2016-06-09T06:21:18.279Z,1032
2016-06-09T06:22:18.282Z,1072
2016-06-09T06:23:18.301Z,1108
2016-06-09T06:24:18.132Z,1140
2016-06-09T06:25:18.291Z,1160
2016-06-09T06:26:18.279Z,1160
2016-06-09T06:27:18.141Z,1136
2016-06-09T06:28:18.285Z,1132
2016-06-09T06:29:18.288Z,1160
2016-06-09T06:30:18.276Z,1208
2016-06-09T06:31:18.294Z,1256
2016-06-09T06:32:18.281Z,1292
2016-06-09T06:33:18.300Z,1304
2016-06-09T06:34:18.304Z,1328
2016-06-09T06:35:18.712Z,1344
2016-06-09T06:36:18.294Z,1392
2016-06-09T06:37:18.141Z,1484
2016-06-09T06:38:18.300Z,1604
2016-06-09T06:39:18.303Z,1740
2016-06-09T06:40:18.150Z,1904
2016-06-09T06:41:18.293Z,2096
2016-06-09T06:42:18.296Z,2356
2016-06-09T06:43:18.299Z,2688
2016-06-09T06:44:18.303Z,3064
2016-06-09T06:45:18.321Z,3456
2016-06-09T06:46:18.308Z,3824
2016-06-09T06:47:18.311Z,4220
2016-06-09T06:48:18.331Z,4720
2016-06-09T06:49:18.318Z,5128
2016-06-09T06:50:18.696Z,5260
2016-06-09T06:51:18.324Z,5228
2016-06-09T06:52:18.326Z,5028
2016-06-09T06:53:18.315Z,4128
2016-06-09T06:54:18.333Z,2856
2016-06-09T06:55:18.336Z,2028
2016-06-09T06:56:18.339Z,1772
2016-06-09T06:57:18.342Z,2148
2016-06-09T06:58:18.330Z,2636
2016-06-09T06:59:18.334Z,2976
2016-06-09T07:00:18.181Z,3152
2016-06-09T07:01:18.183Z,3208
2016-06-09T07:02:18.342Z,3108
2016-06-09T07:03:18.346Z,3504
2016-06-09T07:04:18.349Z,3988
2016-06-09T07:05:18.726Z,4616
2016-06-09T07:06:18.355Z,5060
2016-06-09T07:07:18.342Z,5160
2016-06-09T07:08:18.345Z,5000
2016-06-09T07:09:18.208Z,4744
2016-06-09T07:10:18.195Z,4740
2016-06-09T07:11:18.355Z,4908
2016-06-09T07:12:18.201Z,5172
2016-06-09T07:13:18.376Z,5468
2016-06-09T07:14:18.379Z,5756
2016-06-09T07:15:18.211Z,6072
2016-06-09T07:16:18.369Z,6344
2016-06-09T07:17:18.373Z,6596
2016-06-09T07:18:18.235Z,6824
2016-06-09T07:19:18.379Z,6832
2016-06-09T07:20:18.523Z,6624
2016-06-09T07:21:18.385Z,6612
2016-06-09T07:22:18.388Z,6620
2016-06-09T07:23:18.391Z,6772
2016-06-09T07:24:18.394Z,7524
2016-06-09T07:25:18.257Z,8252
2016-06-09T07:26:18.401Z,8360
2016-06-09T07:27:18.389Z,8652
2016-06-09T07:28:18.392Z,9696
2016-06-09T07:29:18.409Z,8588
2016-06-09T07:30:18.413Z,8272
2016-06-09T07:31:18.416Z,8476
2016-06-09T07:32:18.419Z,8792
2016-06-09T07:33:18.407Z,8388
2016-06-09T07:34:18.424Z,8636
2016-06-09T07:35:18.272Z,8128
2016-06-09T07:36:18.416Z,7600
2016-06-09T07:37:18.450Z,7632
2016-06-09T07:38:18.437Z,7208
2016-06-09T07:39:18.425Z,6696
2016-06-09T07:40:18.428Z,6468
2016-06-09T07:41:18.446Z,6280
2016-06-09T07:42:18.434Z,6092
2016-06-09T07:43:18.297Z,5672
2016-06-09T07:44:18.440Z,4796
2016-06-09T07:45:18.444Z,4296
2016-06-09T07:46:18.665Z,3952
2016-06-09T07:47:18.465Z,3944
2016-06-09T07:48:18.468Z,4304
2016-06-09T07:49:18.456Z,4764
2016-06-09T07:50:19.021Z,5088
2016-06-09T07:51:18.477Z,4928
2016-06-09T07:52:18.466Z,4372
2016-06-09T07:53:18.468Z,3844
2016-06-09T07:54:18.471Z,3588
2016-06-09T07:55:18.474Z,3428
2016-06-09T07:56:18.493Z,3412
2016-06-09T07:57:18.481Z,3136
2016-06-09T07:58:18.484Z,2980
2016-06-09T07:59:18.501Z,3088
2016-06-09T08:00:18.333Z,3424
2016-06-09T08:01:18.508Z,3684
2016-06-09T08:02:18.511Z,4008
2016-06-09T08:03:18.358Z,4472
2016-06-09T08:04:18.361Z,4536
2016-06-09T08:05:19.223Z,4444
2016-06-09T08:06:18.524Z,4460
2016-06-09T08:07:18.526Z,4440
2016-06-09T08:08:18.515Z,4692
2016-06-09T08:09:18.518Z,4620
2016-06-09T08:10:18.535Z,4792
2016-06-09T08:11:18.383Z,5120
2016-06-09T08:12:18.542Z,5324
2016-06-09T08:13:18.544Z,5248
2016-06-09T08:14:18.533Z,4980
2016-06-09T08:15:18.394Z,4380
2016-06-09T08:16:18.539Z,3640
2016-06-09T08:17:18.542Z,3116
2016-06-09T08:18:18.545Z,2872
2016-06-09T08:19:18.548Z,2708
2016-06-09T08:20:19.083Z,2604
2016-06-09T08:21:18.569Z,2632
2016-06-09T08:22:18.558Z,2908
2016-06-09T08:23:18.560Z,3092
2016-06-09T08:24:18.423Z,3064
2016-06-09T08:25:18.569Z,3008
2016-06-09T08:26:18.614Z,3148
2016-06-09T08:27:18.660Z,3276
2016-06-09T08:28:18.705Z,3524
2016-06-09T08:29:18.767Z,3756
2016-06-09T08:30:18.811Z,4072
2016-06-09T08:31:18.673Z,4428
2016-06-09T08:32:18.848Z,4736
2016-06-09T08:33:18.851Z,4920
2016-06-09T08:34:18.884Z,4920
2016-06-09T08:35:19.074Z,4868
2016-06-09T08:36:18.771Z,4888
2016-06-09T08:37:18.764Z,4896
2016-06-09T08:38:18.913Z,4880
2016-06-09T08:39:18.936Z,4832
2016-06-09T08:40:18.929Z,4784
2016-06-09T08:41:18.934Z,4740
2016-06-09T08:42:18.955Z,4656
2016-06-09T08:43:18.960Z,4560
2016-06-09T08:44:18.965Z,4404
2016-06-09T08:45:18.954Z,4312
2016-06-09T08:46:18.973Z,4260
2016-06-09T08:47:18.962Z,4364
2016-06-09T08:48:18.966Z,4596
2016-06-09T08:49:18.970Z,4912
2016-06-09T08:50:20.208Z,5284
2016-06-09T08:51:18.836Z,5708
2016-06-09T08:52:18.980Z,6192
2016-06-09T08:53:18.984Z,6408
2016-06-09T08:54:18.988Z,6516
2016-06-09T08:55:19.006Z,6596
2016-06-09T08:56:18.854Z,6628
2016-06-09T08:57:18.997Z,6560
2016-06-09T08:58:19.016Z,6592
2016-06-09T08:59:19.004Z,6664
2016-06-09T09:00:19.021Z,6780
2016-06-09T09:01:19.040Z,6700
2016-06-09T09:02:19.012Z,6464
2016-06-09T09:03:19.046Z,6260
2016-06-09T09:04:19.018Z,6028
2016-06-09T09:05:19.037Z,5772
2016-06-09T09:06:19.618Z,5592
2016-06-09T09:07:19.043Z,5352
2016-06-09T09:08:19.046Z,5120
2016-06-09T09:09:19.049Z,4696
2016-06-09T09:10:18.896Z,4192
2016-06-09T09:11:19.056Z,3736
2016-06-09T09:12:19.043Z,3392
2016-06-09T09:13:19.062Z,3000
2016-06-09T09:14:19.050Z,2472
2016-06-09T09:15:19.084Z,1992
2016-06-09T09:16:19.070Z,1652
2016-06-09T09:17:19.074Z,1484
2016-06-09T09:18:19.093Z,1388
2016-06-09T09:19:18.924Z,1368
2016-06-09T09:20:19.239Z,1472
2016-06-09T09:21:19.289Z,1728
2016-06-09T09:22:19.105Z,2112
2016-06-09T09:23:18.936Z,2560
2016-06-09T09:24:19.095Z,3056
2016-06-09T09:25:19.098Z,3628
2016-06-09T09:26:19.101Z,4256
2016-06-09T09:27:18.964Z,4852
2016-06-09T09:28:19.124Z,5452
2016-06-09T09:29:19.110Z,6000
2016-06-09T09:30:19.113Z,6500
2016-06-09T09:31:19.117Z,6928
2016-06-09T09:32:19.119Z,7232
2016-06-09T09:33:19.122Z,7432
2016-06-09T09:34:19.126Z,7564
2016-06-09T09:35:19.614Z,7620
2016-06-09T09:36:18.992Z,7636
2016-06-09T09:37:19.135Z,7524
2016-06-09T09:38:19.139Z,7152
2016-06-09T09:39:19.157Z,6852
2016-06-09T09:40:19.004Z,6836
2016-06-09T09:41:19.147Z,7288
2016-06-09T09:42:19.167Z,7872
2016-06-09T09:43:19.169Z,8248
2016-06-09T09:44:19.157Z,8260
2016-06-09T09:45:19.176Z,8124
2016-06-09T09:46:19.163Z,7724
2016-06-09T09:47:19.182Z,7352
2016-06-09T09:48:19.184Z,6736
2016-06-09T09:49:19.172Z,6620
2016-06-09T09:50:20.347Z,7228
2016-06-09T09:51:20.632Z,8180
2016-06-09T09:52:19.182Z,8748
2016-06-09T09:53:19.184Z,8956
2016-06-09T09:54:19.187Z,8912
2016-06-09T09:55:19.051Z,8692
2016-06-09T09:56:19.210Z,8412
2016-06-09T09:57:19.056Z,8096
2016-06-09T09:58:19.216Z,7836
2016-06-09T09:59:19.062Z,7660
2016-06-09T10:00:19.222Z,7532
2016-06-09T10:01:19.209Z,7332
2016-06-09T10:02:19.228Z,7160
2016-06-09T10:03:19.231Z,7056
2016-06-09T10:04:19.234Z,7116
2016-06-09T10:05:19.737Z,7248
2016-06-09T10:06:19.552Z,7484
2016-06-09T10:07:19.243Z,7672
2016-06-09T10:08:19.246Z,7752
2016-06-09T10:09:19.250Z,7760
2016-06-09T10:10:19.267Z,7760
2016-06-09T10:11:19.100Z,7788
2016-06-09T10:12:19.274Z,7768
2016-06-09T10:13:19.262Z,7608
2016-06-09T10:14:19.265Z,7352
2016-06-09T10:15:19.268Z,7100
2016-06-09T10:16:19.302Z,6908
2016-06-09T10:17:19.289Z,6624
2016-06-09T10:18:19.292Z,6476
2016-06-09T10:19:19.295Z,6528
2016-06-09T10:20:19.736Z,6620
2016-06-09T10:21:19.724Z,6796
2016-06-09T10:22:19.304Z,6976
2016-06-09T10:23:19.308Z,7308
2016-06-09T10:24:19.327Z,7616
2016-06-09T10:25:19.345Z,7772
2016-06-09T10:26:19.332Z,7764
2016-06-09T10:27:19.336Z,7768
2016-06-09T10:28:19.323Z,7780
2016-06-09T10:29:19.326Z,7796
2016-06-09T10:30:19.345Z,7812
2016-06-09T10:31:19.333Z,7792
2016-06-09T10:32:19.335Z,7720
2016-06-09T10:33:19.354Z,7616
2016-06-09T10:34:19.357Z,7552
2016-06-09T10:35:19.360Z,7544
2016-06-09T10:36:19.348Z,7572
2016-06-09T10:37:19.366Z,7608
2016-06-09T10:38:19.369Z,7684
2016-06-09T10:39:19.622Z,7792
2016-06-09T10:40:19.220Z,7896
2016-06-09T10:41:19.395Z,8016
2016-06-09T10:42:19.413Z,8072
2016-06-09T10:43:19.385Z,8036
2016-06-09T10:44:19.388Z,8032
2016-06-09T10:45:19.391Z,8100
2016-06-09T10:46:19.411Z,8116
2016-06-09T10:47:19.413Z,8080
2016-06-09T10:48:19.431Z,7980
2016-06-09T10:49:19.263Z,7884
2016-06-09T10:50:19.422Z,7812
2016-06-09T10:51:19.285Z,7748
2016-06-09T10:52:19.429Z,7620
2016-06-09T10:53:19.291Z,7444
2016-06-09T10:54:19.450Z,7236
2016-06-09T10:55:19.437Z,7016
2016-06-09T10:56:19.441Z,6844
2016-06-09T10:57:19.459Z,6736
2016-06-09T10:58:19.462Z,6592
2016-06-09T10:59:19.309Z,6476
2016-06-09T11:00:19.313Z,6468
2016-06-09T11:01:30.628Z,6480
2016-06-09T11:02:19.475Z,6416
2016-06-09T11:03:19.477Z,6324
2016-06-09T11:04:19.481Z,6196
2016-06-09T11:05:19.484Z,6056
2016-06-09T11:06:19.346Z,5944
2016-06-09T11:07:20.365Z,5856
2016-06-09T11:08:19.493Z,5776
2016-06-09T11:09:19.512Z,5704
2016-06-09T11:10:19.515Z,5656
2016-06-09T11:11:19.346Z,5656
2016-06-09T11:12:19.349Z,5692
2016-06-09T11:13:19.680Z,5668
2016-06-09T11:14:19.527Z,5616
2016-06-09T11:15:19.374Z,5580
2016-06-09T11:16:19.549Z,5612
2016-06-09T11:17:19.536Z,5684
2016-06-09T11:18:19.539Z,5756
2016-06-09T11:19:19.527Z,5752
2016-06-09T11:20:19.545Z,5720
2016-06-09T11:21:19.549Z,5708
2016-06-09T11:22:19.552Z,5732
2016-06-09T11:23:19.539Z,5764
2016-06-09T11:24:20.480Z,5804
2016-06-09T11:25:19.561Z,5848
2016-06-09T11:26:19.564Z,5860
2016-06-09T11:27:19.411Z,5820
2016-06-09T11:28:19.415Z,5776
2016-06-09T11:29:19.432Z,5708
2016-06-09T11:30:19.577Z,5632
2016-06-09T11:31:19.595Z,5588
2016-06-09T11:32:19.582Z,5540
2016-06-09T11:33:19.602Z,5496
2016-06-09T11:34:19.605Z,5472
2016-06-09T11:35:19.622Z,5424
2016-06-09T11:36:19.782Z,5356
2016-06-09T11:37:19.629Z,5308
2016-06-09T11:38:19.617Z,5296
2016-06-09T11:39:19.620Z,5288
2016-06-09T11:40:19.623Z,5272
2016-06-09T11:41:19.627Z,5240
2016-06-09T11:42:19.644Z,5228
2016-06-09T11:43:19.648Z,5248
2016-06-09T11:44:19.636Z,5276
2016-06-09T11:45:19.654Z,5296
2016-06-09T11:46:19.501Z,5308
2016-06-09T11:47:19.645Z,5316
2016-06-09T11:48:19.663Z,5328
2016-06-09T11:49:19.650Z,5324
2016-06-09T11:50:19.669Z,5324
2016-06-09T11:51:19.672Z,5300
2016-06-09T11:52:19.675Z,5280
2016-06-09T11:53:19.678Z,5240
2016-06-09T11:54:19.667Z,5196
2016-06-09T11:55:19.684Z,5160
2016-06-09T11:56:19.688Z,5152
2016-06-09T11:57:19.690Z,5152
2016-06-09T11:58:19.710Z,5208
2016-06-09T11:59:19.682Z,5300
2016-06-09T12:00:19.699Z,5364
2016-06-09T12:01:19.703Z,5388
2016-06-09T12:02:19.722Z,5420
2016-06-09T12:03:19.725Z,5468
2016-06-09T12:04:19.728Z,5524
2016-06-09T12:05:19.715Z,5548
2016-06-09T12:06:19.906Z,5524
2016-06-09T12:07:20.268Z,5524
2016-06-09T12:08:19.584Z,5520
2016-06-09T12:09:19.774Z,5600
2016-06-09T12:10:19.746Z,5832
2016-06-09T12:11:19.750Z,6000
2016-06-09T12:12:19.752Z,6076
2016-06-09T12:13:19.755Z,6140
2016-06-09T12:14:19.758Z,6208
2016-06-09T12:15:19.762Z,6252
2016-06-09T12:16:19.780Z,6280
2016-06-09T12:17:19.783Z,6304
2016-06-09T12:18:19.771Z,6300
2016-06-09T12:19:19.789Z,6212
2016-06-09T12:20:19.777Z,6024
2016-06-09T12:21:19.811Z,5892
2016-06-09T12:22:20.486Z,5752
2016-06-09T12:23:19.786Z,5620
2016-06-09T12:24:19.805Z,5688
2016-06-09T12:25:19.823Z,5880
2016-06-09T12:26:19.811Z,6040
2016-06-09T12:27:19.814Z,6236
2016-06-09T12:28:19.801Z,6552
2016-06-09T12:29:19.820Z,6800
2016-06-09T12:30:19.808Z,6952
2016-06-09T12:31:19.826Z,7056
2016-06-09T12:32:19.829Z,7096
2016-06-09T12:33:19.832Z,7128
2016-06-09T12:34:19.851Z,7152
2016-06-09T12:35:19.838Z,7116
2016-06-09T12:36:20.608Z,7136
2016-06-09T12:37:19.439Z,7148
2016-06-09T12:38:19.864Z,7088
2016-06-09T12:39:19.694Z,7076
2016-06-09T12:40:19.869Z,7060
2016-06-09T12:41:19.873Z,7036
2016-06-09T12:42:19.860Z,7036
2016-06-09T12:43:19.863Z,7080
2016-06-09T12:44:19.726Z,7160
2016-06-09T12:45:19.885Z,7252
2016-06-09T12:46:19.888Z,7328
2016-06-09T12:47:19.891Z,7396
2016-06-09T12:48:19.878Z,7464
2016-06-09T12:49:19.585Z,7532
2016-06-09T12:50:19.901Z,7604
2016-06-09T12:51:20.107Z,7648
2016-06-09T12:52:20.828Z,7688
2016-06-09T12:53:19.909Z,7744
2016-06-09T12:54:19.928Z,7796
2016-06-09T12:55:19.932Z,7864
2016-06-09T12:56:19.934Z,7896
2016-06-09T12:57:19.938Z,7892
2016-06-09T12:58:19.941Z,7888
2016-06-09T12:59:19.928Z,7896
2016-06-09T13:00:19.947Z,7956
2016-06-09T13:01:19.934Z,8012
2016-06-09T13:02:19.953Z,8056
2016-06-09T13:03:19.956Z,8088
2016-06-09T13:04:19.959Z,8112
2016-06-09T13:05:19.963Z,8128
2016-06-09T13:06:20.856Z,8152
2016-06-09T13:07:19.984Z,8184
2016-06-09T13:08:19.815Z,8212
2016-06-09T13:09:19.989Z,8236
2016-06-09T13:10:19.821Z,8232
2016-06-09T13:11:19.996Z,8224
2016-06-09T13:12:19.999Z,8244
2016-06-09T13:13:20.002Z,8244
2016-06-09T13:14:20.005Z,8244
2016-06-09T13:15:20.009Z,8228
2016-06-09T13:16:20.011Z,8208
2016-06-09T13:17:20.014Z,8208
2016-06-09T13:18:20.034Z,8204
2016-06-09T13:19:20.021Z,8196
2016-06-09T13:20:20.024Z,8164
2016-06-09T13:21:20.292Z,8120
2016-06-09T13:22:20.530Z,8076
2016-06-09T13:23:20.032Z,8028
2016-06-09T13:24:20.035Z,7968
2016-06-09T13:25:20.055Z,7940
2016-06-09T13:26:20.058Z,7896
2016-06-09T13:27:20.045Z,7840
2016-06-09T13:28:20.080Z,7768
2016-06-09T13:29:20.084Z,7664
2016-06-09T13:30:20.087Z,7552
2016-06-09T13:31:20.073Z,7432
2016-06-09T13:32:20.076Z,7304
2016-06-09T13:33:20.095Z,7160
2016-06-09T13:34:20.083Z,7008
2016-06-09T13:35:20.086Z,6856
2016-06-09T13:36:20.105Z,6688
2016-06-09T13:37:19.951Z,6532
2016-06-09T13:38:20.095Z,6368
2016-06-09T13:39:20.129Z,6252
2016-06-09T13:40:20.101Z,6168
2016-06-09T13:41:19.963Z,6032
2016-06-09T13:42:20.123Z,5976
2016-06-09T13:43:20.126Z,5900
2016-06-09T13:44:19.988Z,5760
2016-06-09T13:45:20.132Z,5636